sensor_id;sensor_type;location;lat;lon;timestamp;P1;durP1;ratioP1;P2;durP2;ratioP2
15104;SDS011;7653;48.994;9.212;2023-05-07T00:02:21;4.13;;;3.20;;
15104;SDS011;7653;48.994;9.212;2023-05-07T00:04:47;4.77;;;2.67;;
15104;SDS011;7653;48.994;9.212;2023-05-07T00:07:13;6.67;;;2.67;;
15104;SDS011;7653;48.994;9.212;2023-05-07T00:09:39;4.53;;;2.47;;
15104;SDS011;7653;48.994;9.212;2023-05-07T00:12:05;3.70;;;2.70;;
15104;SDS011;7653;48.994;9.212;2023-05-07T00:14:31;3.27;;;2.57;;
15104;SDS011;7653;48.994;9.212;2023-05-07T00:16:57;3.67;;;2.60;;
15104;SDS011;7653;48.994;9.212;2023-05-07T00:19:22;4.20;;;2.40;;
15104;SDS011;7653;48.994;9.212;2023-05-07T00:21:48;4.80;;;3.00;;
15104;SDS011;7653;48.994;9.212;2023-05-07T00:24:14;3.43;;;3.07;;
15104;SDS011;7653;48.994;9.212;2023-05-07T00:26:39;3.53;;;3.23;;
15104;SDS011;7653;48.994;9.212;2023-05-07T00:29:05;5.50;;;4.10;;
15104;SDS011;7653;48.994;9.212;2023-05-07T00:31:31;4.20;;;3.60;;
15104;SDS011;7653;48.994;9.212;2023-05-07T00:33:56;4.40;;;3.87;;
15104;SDS011;7653;48.994;9.212;2023-05-07T00:36:22;6.27;;;3.87;;
15104;SDS011;7653;48.994;9.212;2023-05-07T00:38:47;5.60;;;3.73;;
15104;SDS011;7653;48.994;9.212;2023-05-07T00:41:13;5.63;;;3.20;;
15104;SDS011;7653;48.994;9.212;2023-05-07T00:43:40;3.33;;;3.03;;
15104;SDS011;7653;48.994;9.212;2023-05-07T00:46:06;3.30;;;2.40;;
15104;SDS011;7653;48.994;9.212;2023-05-07T00:48:31;3.70;;;3.20;;
15104;SDS011;7653;48.994;9.212;2023-05-07T00:50:57;3.70;;;3.20;;
15104;SDS011;7653;48.994;9.212;2023-05-07T00:53:23;4.20;;;2.60;;
15104;SDS011;7653;48.994;9.212;2023-05-07T00:55:49;5.97;;;3.20;;
15104;SDS011;7653;48.994;9.212;2023-05-07T00:58:15;3.80;;;3.40;;
15104;SDS011;7653;48.994;9.212;2023-05-07T01:00:41;4.20;;;3.80;;
15104;SDS011;7653;48.994;9.212;2023-05-07T01:03:07;7.50;;;5.43;;
15104;SDS011;7653;48.994;9.212;2023-05-07T01:05:33;9.13;;;6.17;;
15104;SDS011;7653;48.994;9.212;2023-05-07T01:07:59;7.33;;;5.30;;
15104;SDS011;7653;48.994;9.212;2023-05-07T01:10:25;6.43;;;5.27;;
15104;SDS011;7653;48.994;9.212;2023-05-07T01:12:51;7.53;;;5.07;;
15104;SDS011;7653;48.994;9.212;2023-05-07T01:15:17;8.70;;;5.60;;
15104;SDS011;7653;48.994;9.212;2023-05-07T01:17:43;9.13;;;4.93;;
15104;SDS011;7653;48.994;9.212;2023-05-07T01:20:09;5.13;;;4.40;;
15104;SDS011;7653;48.994;9.212;2023-05-07T01:22:36;4.93;;;3.80;;
15104;SDS011;7653;48.994;9.212;2023-05-07T01:25:03;5.13;;;3.60;;
15104;SDS011;7653;48.994;9.212;2023-05-07T01:27:29;4.77;;;3.47;;
15104;SDS011;7653;48.994;9.212;2023-05-07T01:29:55;3.80;;;3.00;;
15104;SDS011;7653;48.994;9.212;2023-05-07T01:32:23;3.87;;;3.17;;
15104;SDS011;7653;48.994;9.212;2023-05-07T01:35:10;3.77;;;3.20;;
15104;SDS011;7653;48.994;9.212;2023-05-07T01:37:37;5.70;;;3.20;;
15104;SDS011;7653;48.994;9.212;2023-05-07T01:40:04;6.03;;;2.73;;
15104;SDS011;7653;48.994;9.212;2023-05-07T01:42:32;4.17;;;3.17;;
15104;SDS011;7653;48.994;9.212;2023-05-07T01:44:57;3.40;;;3.10;;
15104;SDS011;7653;48.994;9.212;2023-05-07T01:47:24;4.30;;;2.90;;
15104;SDS011;7653;48.994;9.212;2023-05-07T01:49:50;4.13;;;2.90;;
15104;SDS011;7653;48.994;9.212;2023-05-07T01:52:16;3.20;;;2.77;;
15104;SDS011;7653;48.994;9.212;2023-05-07T01:54:42;3.53;;;3.20;;
15104;SDS011;7653;48.994;9.212;2023-05-07T01:57:08;4.50;;;3.00;;
15104;SDS011;7653;48.994;9.212;2023-05-07T01:59:33;3.57;;;3.03;;
15104;SDS011;7653;48.994;9.212;2023-05-07T02:01:59;4.70;;;2.97;;
15104;SDS011;7653;48.994;9.212;2023-05-07T02:04:25;4.43;;;2.90;;
15104;SDS011;7653;48.994;9.212;2023-05-07T02:06:51;3.50;;;3.20;;
15104;SDS011;7653;48.994;9.212;2023-05-07T02:09:17;3.80;;;3.13;;
15104;SDS011;7653;48.994;9.212;2023-05-07T02:11:44;6.60;;;3.23;;
15104;SDS011;7653;48.994;9.212;2023-05-07T02:14:09;3.90;;;3.07;;
15104;SDS011;7653;48.994;9.212;2023-05-07T02:16:35;4.57;;;3.00;;
15104;SDS011;7653;48.994;9.212;2023-05-07T02:19:01;4.00;;;3.30;;
15104;SDS011;7653;48.994;9.212;2023-05-07T02:21:27;4.20;;;3.30;;
15104;SDS011;7653;48.994;9.212;2023-05-07T02:23:53;6.13;;;3.50;;
15104;SDS011;7653;48.994;9.212;2023-05-07T02:26:19;4.67;;;2.90;;
15104;SDS011;7653;48.994;9.212;2023-05-07T02:28:44;3.30;;;2.77;;
15104;SDS011;7653;48.994;9.212;2023-05-07T02:31:10;3.57;;;3.27;;
15104;SDS011;7653;48.994;9.212;2023-05-07T02:33:35;3.60;;;3.10;;
15104;SDS011;7653;48.994;9.212;2023-05-07T02:36:05;3.80;;;3.10;;
15104;SDS011;7653;48.994;9.212;2023-05-07T02:38:34;4.37;;;2.80;;
15104;SDS011;7653;48.994;9.212;2023-05-07T02:41:00;4.23;;;3.60;;
15104;SDS011;7653;48.994;9.212;2023-05-07T02:43:25;3.50;;;3.10;;
15104;SDS011;7653;48.994;9.212;2023-05-07T02:46:04;3.33;;;3.03;;
15104;SDS011;7653;48.994;9.212;2023-05-07T02:48:31;3.43;;;3.03;;
15104;SDS011;7653;48.994;9.212;2023-05-07T02:50:57;4.63;;;3.07;;
15104;SDS011;7653;48.994;9.212;2023-05-07T02:53:23;4.03;;;2.70;;
15104;SDS011;7653;48.994;9.212;2023-05-07T02:55:51;4.33;;;2.90;;
15104;SDS011;7653;48.994;9.212;2023-05-07T02:58:18;3.90;;;2.77;;
15104;SDS011;7653;48.994;9.212;2023-05-07T03:00:43;3.97;;;3.10;;
15104;SDS011;7653;48.994;9.212;2023-05-07T03:03:09;5.23;;;3.47;;
15104;SDS011;7653;48.994;9.212;2023-05-07T03:05:35;3.70;;;3.40;;
15104;SDS011;7653;48.994;9.212;2023-05-07T03:08:01;5.40;;;3.10;;
15104;SDS011;7653;48.994;9.212;2023-05-07T03:10:28;3.17;;;2.70;;
15104;SDS011;7653;48.994;9.212;2023-05-07T03:12:54;2.90;;;2.70;;
15104;SDS011;7653;48.994;9.212;2023-05-07T03:15:20;3.30;;;3.00;;
15104;SDS011;7653;48.994;9.212;2023-05-07T03:17:46;4.37;;;3.30;;
15104;SDS011;7653;48.994;9.212;2023-05-07T03:20:12;3.83;;;3.40;;
15104;SDS011;7653;48.994;9.212;2023-05-07T03:22:38;4.33;;;3.27;;
15104;SDS011;7653;48.994;9.212;2023-05-07T03:25:05;4.20;;;3.00;;
15104;SDS011;7653;48.994;9.212;2023-05-07T03:27:32;4.27;;;3.03;;
15104;SDS011;7653;48.994;9.212;2023-05-07T03:29:57;4.43;;;3.10;;
15104;SDS011;7653;48.994;9.212;2023-05-07T03:32:23;4.73;;;3.30;;
15104;SDS011;7653;48.994;9.212;2023-05-07T03:34:49;3.67;;;3.30;;
15104;SDS011;7653;48.994;9.212;2023-05-07T03:37:14;3.90;;;3.50;;
15104;SDS011;7653;48.994;9.212;2023-05-07T03:39:40;3.93;;;2.87;;
15104;SDS011;7653;48.994;9.212;2023-05-07T03:42:05;3.93;;;3.07;;
15104;SDS011;7653;48.994;9.212;2023-05-07T03:44:31;3.80;;;3.40;;
15104;SDS011;7653;48.994;9.212;2023-05-07T03:46:57;3.50;;;3.10;;
15104;SDS011;7653;48.994;9.212;2023-05-07T03:49:22;4.40;;;3.13;;
15104;SDS011;7653;48.994;9.212;2023-05-07T03:51:48;3.93;;;3.10;;
15104;SDS011;7653;48.994;9.212;2023-05-07T03:54:14;3.20;;;2.90;;
15104;SDS011;7653;48.994;9.212;2023-05-07T03:56:39;3.83;;;3.17;;
15104;SDS011;7653;48.994;9.212;2023-05-07T03:59:05;4.47;;;3.13;;
15104;SDS011;7653;48.994;9.212;2023-05-07T04:01:31;4.97;;;3.73;;
15104;SDS011;7653;48.994;9.212;2023-05-07T04:03:56;3.70;;;3.10;;
15104;SDS011;7653;48.994;9.212;2023-05-07T04:06:22;4.43;;;3.40;;
15104;SDS011;7653;48.994;9.212;2023-05-07T04:08:48;3.63;;;3.27;;
15104;SDS011;7653;48.994;9.212;2023-05-07T04:11:13;3.63;;;2.90;;
15104;SDS011;7653;48.994;9.212;2023-05-07T04:13:39;4.07;;;3.27;;
15104;SDS011;7653;48.994;9.212;2023-05-07T04:16:05;7.07;;;3.30;;
15104;SDS011;7653;48.994;9.212;2023-05-07T04:18:31;4.53;;;2.93;;
15104;SDS011;7653;48.994;9.212;2023-05-07T04:20:57;5.37;;;3.50;;
15104;SDS011;7653;48.994;9.212;2023-05-07T04:23:22;3.40;;;3.10;;
15104;SDS011;7653;48.994;9.212;2023-05-07T04:25:48;3.50;;;2.90;;
15104;SDS011;7653;48.994;9.212;2023-05-07T04:28:13;4.70;;;3.17;;
15104;SDS011;7653;48.994;9.212;2023-05-07T04:30:39;3.83;;;2.90;;
15104;SDS011;7653;48.994;9.212;2023-05-07T04:33:06;3.30;;;2.67;;
15104;SDS011;7653;48.994;9.212;2023-05-07T04:35:32;3.00;;;2.70;;
15104;SDS011;7653;48.994;9.212;2023-05-07T04:37:57;4.00;;;3.07;;
15104;SDS011;7653;48.994;9.212;2023-05-07T04:40:26;3.57;;;3.17;;
15104;SDS011;7653;48.994;9.212;2023-05-07T04:42:52;4.13;;;3.10;;
15104;SDS011;7653;48.994;9.212;2023-05-07T04:45:18;5.83;;;3.70;;
15104;SDS011;7653;48.994;9.212;2023-05-07T04:47:43;5.70;;;3.60;;
15104;SDS011;7653;48.994;9.212;2023-05-07T04:50:09;3.93;;;3.53;;
15104;SDS011;7653;48.994;9.212;2023-05-07T04:52:35;4.37;;;3.70;;
15104;SDS011;7653;48.994;9.212;2023-05-07T04:55:01;5.23;;;3.70;;
15104;SDS011;7653;48.994;9.212;2023-05-07T04:57:27;4.87;;;3.90;;
15104;SDS011;7653;48.994;9.212;2023-05-07T04:59:53;5.07;;;4.37;;
15104;SDS011;7653;48.994;9.212;2023-05-07T05:02:19;7.80;;;4.60;;
15104;SDS011;7653;48.994;9.212;2023-05-07T05:04:45;6.67;;;4.47;;
15104;SDS011;7653;48.994;9.212;2023-05-07T05:07:10;5.47;;;4.30;;
15104;SDS011;7653;48.994;9.212;2023-05-07T05:09:36;4.93;;;4.30;;
15104;SDS011;7653;48.994;9.212;2023-05-07T05:12:01;5.00;;;4.50;;
15104;SDS011;7653;48.994;9.212;2023-05-07T05:14:27;5.47;;;4.50;;
15104;SDS011;7653;48.994;9.212;2023-05-07T05:16:53;4.70;;;4.20;;
15104;SDS011;7653;48.994;9.212;2023-05-07T05:19:19;6.37;;;4.23;;
15104;SDS011;7653;48.994;9.212;2023-05-07T05:21:44;6.30;;;4.50;;
15104;SDS011;7653;48.994;9.212;2023-05-07T05:24:10;4.80;;;4.30;;
15104;SDS011;7653;48.994;9.212;2023-05-07T05:26:35;6.33;;;4.60;;
15104;SDS011;7653;48.994;9.212;2023-05-07T05:29:01;5.93;;;4.47;;
15104;SDS011;7653;48.994;9.212;2023-05-07T05:31:27;8.57;;;5.17;;
15104;SDS011;7653;48.994;9.212;2023-05-07T05:33:52;8.30;;;5.03;;
15104;SDS011;7653;48.994;9.212;2023-05-07T05:36:18;5.97;;;4.87;;
15104;SDS011;7653;48.994;9.212;2023-05-07T05:38:43;9.30;;;5.10;;
15104;SDS011;7653;48.994;9.212;2023-05-07T05:41:09;5.73;;;5.23;;
15104;SDS011;7653;48.994;9.212;2023-05-07T05:43:35;5.73;;;5.20;;
15104;SDS011;7653;48.994;9.212;2023-05-07T05:46:01;6.40;;;5.20;;
15104;SDS011;7653;48.994;9.212;2023-05-07T05:48:29;5.57;;;5.07;;
15104;SDS011;7653;48.994;9.212;2023-05-07T05:50:55;7.93;;;5.70;;
15104;SDS011;7653;48.994;9.212;2023-05-07T05:53:20;7.50;;;5.87;;
15104;SDS011;7653;48.994;9.212;2023-05-07T05:55:46;8.60;;;6.07;;
15104;SDS011;7653;48.994;9.212;2023-05-07T05:58:12;10.83;;;7.10;;
15104;SDS011;7653;48.994;9.212;2023-05-07T06:00:37;7.40;;;6.47;;
15104;SDS011;7653;48.994;9.212;2023-05-07T06:03:03;7.63;;;5.87;;
15104;SDS011;7653;48.994;9.212;2023-05-07T06:05:29;8.97;;;6.20;;
15104;SDS011;7653;48.994;9.212;2023-05-07T06:07:55;7.77;;;6.07;;
15104;SDS011;7653;48.994;9.212;2023-05-07T06:10:21;7.07;;;6.37;;
15104;SDS011;7653;48.994;9.212;2023-05-07T06:12:46;10.03;;;6.53;;
15104;SDS011;7653;48.994;9.212;2023-05-07T06:15:12;7.83;;;5.97;;
15104;SDS011;7653;48.994;9.212;2023-05-07T06:17:38;6.73;;;5.93;;
15104;SDS011;7653;48.994;9.212;2023-05-07T06:20:03;11.10;;;6.10;;
15104;SDS011;7653;48.994;9.212;2023-05-07T06:22:30;6.73;;;5.50;;
15104;SDS011;7653;48.994;9.212;2023-05-07T06:24:55;6.97;;;6.00;;
15104;SDS011;7653;48.994;9.212;2023-05-07T06:27:21;6.73;;;5.40;;
15104;SDS011;7653;48.994;9.212;2023-05-07T06:29:47;6.87;;;5.70;;
15104;SDS011;7653;48.994;9.212;2023-05-07T06:32:13;6.93;;;5.67;;
15104;SDS011;7653;48.994;9.212;2023-05-07T06:34:39;5.77;;;5.17;;
15104;SDS011;7653;48.994;9.212;2023-05-07T06:37:06;7.07;;;5.30;;
15104;SDS011;7653;48.994;9.212;2023-05-07T06:39:32;7.33;;;5.70;;
15104;SDS011;7653;48.994;9.212;2023-05-07T06:41:58;8.93;;;5.10;;
15104;SDS011;7653;48.994;9.212;2023-05-07T06:44:24;5.83;;;5.23;;
15104;SDS011;7653;48.994;9.212;2023-05-07T06:46:50;5.37;;;4.60;;
15104;SDS011;7653;48.994;9.212;2023-05-07T06:49:16;5.50;;;4.80;;
15104;SDS011;7653;48.994;9.212;2023-05-07T06:51:41;5.10;;;4.60;;
15104;SDS011;7653;48.994;9.212;2023-05-07T06:54:07;5.57;;;4.73;;
15104;SDS011;7653;48.994;9.212;2023-05-07T06:56:33;5.90;;;4.10;;
15104;SDS011;7653;48.994;9.212;2023-05-07T06:58:59;4.83;;;4.43;;
15104;SDS011;7653;48.994;9.212;2023-05-07T07:01:26;4.83;;;4.37;;
15104;SDS011;7653;48.994;9.212;2023-05-07T07:03:51;6.70;;;4.60;;
15104;SDS011;7653;48.994;9.212;2023-05-07T07:06:17;4.63;;;4.23;;
15104;SDS011;7653;48.994;9.212;2023-05-07T07:08:43;5.47;;;4.20;;
15104;SDS011;7653;48.994;9.212;2023-05-07T07:11:09;7.97;;;4.70;;
15104;SDS011;7653;48.994;9.212;2023-05-07T07:13:35;6.20;;;4.80;;
15104;SDS011;7653;48.994;9.212;2023-05-07T07:16:01;5.40;;;4.50;;
15104;SDS011;7653;48.994;9.212;2023-05-07T07:18:26;5.33;;;4.33;;
15104;SDS011;7653;48.994;9.212;2023-05-07T07:20:52;5.10;;;3.93;;
15104;SDS011;7653;48.994;9.212;2023-05-07T07:23:18;6.70;;;4.10;;
15104;SDS011;7653;48.994;9.212;2023-05-07T07:25:44;4.90;;;4.03;;
15104;SDS011;7653;48.994;9.212;2023-05-07T07:28:09;6.00;;;4.43;;
15104;SDS011;7653;48.994;9.212;2023-05-07T07:30:35;7.13;;;4.20;;
15104;SDS011;7653;48.994;9.212;2023-05-07T07:33:01;6.73;;;3.77;;
15104;SDS011;7653;48.994;9.212;2023-05-07T07:35:34;4.93;;;4.00;;
15104;SDS011;7653;48.994;9.212;2023-05-07T07:38:00;5.47;;;3.50;;
15104;SDS011;7653;48.994;9.212;2023-05-07T07:40:26;3.70;;;3.30;;
15104;SDS011;7653;48.994;9.212;2023-05-07T07:42:52;3.13;;;2.80;;
15104;SDS011;7653;48.994;9.212;2023-05-07T07:45:18;3.20;;;2.70;;
15104;SDS011;7653;48.994;9.212;2023-05-07T07:47:44;3.90;;;3.30;;
15104;SDS011;7653;48.994;9.212;2023-05-07T07:50:10;4.60;;;3.07;;
15104;SDS011;7653;48.994;9.212;2023-05-07T07:52:35;2.53;;;2.07;;
15104;SDS011;7653;48.994;9.212;2023-05-07T07:55:01;2.83;;;2.00;;
15104;SDS011;7653;48.994;9.212;2023-05-07T07:57:28;2.97;;;1.97;;
15104;SDS011;7653;48.994;9.212;2023-05-07T07:59:53;1.90;;;1.70;;
15104;SDS011;7653;48.994;9.212;2023-05-07T08:02:19;2.03;;;1.70;;
15104;SDS011;7653;48.994;9.212;2023-05-07T08:04:45;2.30;;;1.87;;
15104;SDS011;7653;48.994;9.212;2023-05-07T08:07:11;1.90;;;1.70;;
15104;SDS011;7653;48.994;9.212;2023-05-07T08:09:37;7.70;;;2.00;;
15104;SDS011;7653;48.994;9.212;2023-05-07T08:12:03;1.73;;;1.63;;
15104;SDS011;7653;48.994;9.212;2023-05-07T08:14:30;2.30;;;2.10;;
15104;SDS011;7653;48.994;9.212;2023-05-07T08:16:55;2.17;;;1.70;;
15104;SDS011;7653;48.994;9.212;2023-05-07T08:19:21;3.23;;;2.00;;
15104;SDS011;7653;48.994;9.212;2023-05-07T08:21:47;2.87;;;1.80;;
15104;SDS011;7653;48.994;9.212;2023-05-07T08:24:13;2.17;;;1.77;;
15104;SDS011;7653;48.994;9.212;2023-05-07T08:26:40;2.63;;;1.90;;
15104;SDS011;7653;48.994;9.212;2023-05-07T08:29:06;2.07;;;1.70;;
15104;SDS011;7653;48.994;9.212;2023-05-07T08:31:32;2.63;;;1.60;;
15104;SDS011;7653;48.994;9.212;2023-05-07T08:33:58;2.23;;;1.80;;
15104;SDS011;7653;48.994;9.212;2023-05-07T08:36:24;2.60;;;1.97;;
15104;SDS011;7653;48.994;9.212;2023-05-07T08:38:50;3.03;;;2.00;;
15104;SDS011;7653;48.994;9.212;2023-05-07T08:41:17;2.10;;;1.90;;
15104;SDS011;7653;48.994;9.212;2023-05-07T08:43:43;2.50;;;1.73;;
15104;SDS011;7653;48.994;9.212;2023-05-07T08:46:13;2.83;;;1.73;;
15104;SDS011;7653;48.994;9.212;2023-05-07T08:48:43;2.17;;;1.83;;
15104;SDS011;7653;48.994;9.212;2023-05-07T08:51:12;2.30;;;2.10;;
15104;SDS011;7653;48.994;9.212;2023-05-07T08:53:39;1.97;;;1.87;;
15104;SDS011;7653;48.994;9.212;2023-05-07T08:56:09;3.30;;;1.90;;
15104;SDS011;7653;48.994;9.212;2023-05-07T08:58:36;3.47;;;1.90;;
15104;SDS011;7653;48.994;9.212;2023-05-07T09:01:14;2.30;;;1.90;;
15104;SDS011;7653;48.994;9.212;2023-05-07T09:03:41;3.27;;;1.87;;
15104;SDS011;7653;48.994;9.212;2023-05-07T09:06:09;1.93;;;1.63;;
15104;SDS011;7653;48.994;9.212;2023-05-07T09:08:35;2.00;;;1.90;;
15104;SDS011;7653;48.994;9.212;2023-05-07T09:11:01;2.50;;;2.00;;
15104;SDS011;7653;48.994;9.212;2023-05-07T09:13:27;2.40;;;2.20;;
15104;SDS011;7653;48.994;9.212;2023-05-07T09:15:54;2.07;;;1.80;;
15104;SDS011;7653;48.994;9.212;2023-05-07T09:18:19;2.17;;;2.00;;
15104;SDS011;7653;48.994;9.212;2023-05-07T09:20:45;3.43;;;2.27;;
15104;SDS011;7653;48.994;9.212;2023-05-07T09:23:11;3.00;;;2.20;;
15104;SDS011;7653;48.994;9.212;2023-05-07T09:25:36;5.23;;;2.30;;
15104;SDS011;7653;48.994;9.212;2023-05-07T09:28:03;2.13;;;1.93;;
15104;SDS011;7653;48.994;9.212;2023-05-07T09:30:31;2.67;;;1.73;;
15104;SDS011;7653;48.994;9.212;2023-05-07T09:32:58;2.57;;;1.70;;
15104;SDS011;7653;48.994;9.212;2023-05-07T09:35:25;3.33;;;1.90;;
15104;SDS011;7653;48.994;9.212;2023-05-07T09:37:57;2.23;;;1.90;;
15104;SDS011;7653;48.994;9.212;2023-05-07T09:40:28;3.23;;;1.90;;
15104;SDS011;7653;48.994;9.212;2023-05-07T09:42:54;2.80;;;1.50;;
15104;SDS011;7653;48.994;9.212;2023-05-07T09:45:27;1.83;;;1.60;;
15104;SDS011;7653;48.994;9.212;2023-05-07T09:47:57;2.80;;;1.60;;
15104;SDS011;7653;48.994;9.212;2023-05-07T09:50:26;2.10;;;1.90;;
15104;SDS011;7653;48.994;9.212;2023-05-07T09:52:54;2.10;;;1.63;;
15104;SDS011;7653;48.994;9.212;2023-05-07T09:55:21;3.53;;;1.70;;
15104;SDS011;7653;48.994;9.212;2023-05-07T09:57:51;2.60;;;1.90;;
15104;SDS011;7653;48.994;9.212;2023-05-07T10:00:21;2.43;;;1.50;;
15104;SDS011;7653;48.994;9.212;2023-05-07T10:02:48;3.53;;;1.93;;
15104;SDS011;7653;48.994;9.212;2023-05-07T10:05:16;1.93;;;1.73;;
15104;SDS011;7653;48.994;9.212;2023-05-07T10:07:43;10.63;;;2.83;;
15104;SDS011;7653;48.994;9.212;2023-05-07T10:10:10;2.93;;;1.90;;
15104;SDS011;7653;48.994;9.212;2023-05-07T10:12:36;2.70;;;1.80;;
15104;SDS011;7653;48.994;9.212;2023-05-07T10:15:07;2.00;;;1.70;;
15104;SDS011;7653;48.994;9.212;2023-05-07T10:17:35;2.10;;;1.90;;
15104;SDS011;7653;48.994;9.212;2023-05-07T10:20:02;3.93;;;2.07;;
15104;SDS011;7653;48.994;9.212;2023-05-07T10:22:29;3.93;;;1.80;;
15104;SDS011;7653;48.994;9.212;2023-05-07T10:24:57;2.70;;;1.80;;
15104;SDS011;7653;48.994;9.212;2023-05-07T10:27:27;3.20;;;1.80;;
15104;SDS011;7653;48.994;9.212;2023-05-07T10:30:12;1.83;;;1.73;;
15104;SDS011;7653;48.994;9.212;2023-05-07T10:32:49;2.03;;;1.80;;
15104;SDS011;7653;48.994;9.212;2023-05-07T10:35:20;1.87;;;1.63;;
15104;SDS011;7653;48.994;9.212;2023-05-07T10:37:49;1.80;;;1.60;;
15104;SDS011;7653;48.994;9.212;2023-05-07T10:40:16;2.87;;;1.60;;
15104;SDS011;7653;48.994;9.212;2023-05-07T10:42:55;2.07;;;1.60;;
15104;SDS011;7653;48.994;9.212;2023-05-07T10:45:25;2.37;;;1.50;;
15104;SDS011;7653;48.994;9.212;2023-05-07T10:48:05;3.53;;;1.60;;
15104;SDS011;7653;48.994;9.212;2023-05-07T10:50:37;5.67;;;1.70;;
15104;SDS011;7653;48.994;9.212;2023-05-07T10:53:25;2.73;;;1.67;;
15104;SDS011;7653;48.994;9.212;2023-05-07T10:56:23;1.97;;;1.40;;
15104;SDS011;7653;48.994;9.212;2023-05-07T10:58:43;1.73;;;1.63;;
15104;SDS011;7653;48.994;9.212;2023-05-07T11:01:09;2.97;;;1.70;;
15104;SDS011;7653;48.994;9.212;2023-05-07T11:03:37;3.73;;;1.50;;
15104;SDS011;7653;48.994;9.212;2023-05-07T11:06:39;2.08;;;1.63;;
15104;SDS011;7653;48.994;9.212;2023-05-07T11:09:05;1.75;;;1.40;;
15104;SDS011;7653;48.994;9.212;2023-05-07T11:21:10;3.60;;;1.85;;
15104;SDS011;7653;48.994;9.212;2023-05-07T11:24:08;1.52;;;1.42;;
15104;SDS011;7653;48.994;9.212;2023-05-07T11:26:41;3.05;;;1.60;;
15104;SDS011;7653;48.994;9.212;2023-05-07T11:29:12;2.63;;;1.55;;
15104;SDS011;7653;48.994;9.212;2023-05-07T11:31:41;1.58;;;1.48;;
15104;SDS011;7653;48.994;9.212;2023-05-07T11:34:07;3.55;;;1.50;;
15104;SDS011;7653;48.994;9.212;2023-05-07T11:36:33;2.28;;;1.70;;
15104;SDS011;7653;48.994;9.212;2023-05-07T11:38:59;1.45;;;1.25;;
15104;SDS011;7653;48.994;9.212;2023-05-07T11:41:34;2.30;;;1.52;;
15104;SDS011;7653;48.994;9.212;2023-05-07T11:44:01;1.60;;;1.40;;
15104;SDS011;7653;48.994;9.212;2023-05-07T11:46:28;1.60;;;1.50;;
15104;SDS011;7653;48.994;9.212;2023-05-07T11:48:54;2.08;;;1.38;;
15104;SDS011;7653;48.994;9.212;2023-05-07T11:51:21;3.13;;;1.52;;
15104;SDS011;7653;48.994;9.212;2023-05-07T11:53:48;2.78;;;1.63;;
15104;SDS011;7653;48.994;9.212;2023-05-07T11:56:16;1.77;;;1.50;;
15104;SDS011;7653;48.994;9.212;2023-05-07T11:58:43;2.15;;;1.48;;
15104;SDS011;7653;48.994;9.212;2023-05-07T12:01:10;2.28;;;1.33;;
15104;SDS011;7653;48.994;9.212;2023-05-07T12:03:37;1.85;;;1.45;;
15104;SDS011;7653;48.994;9.212;2023-05-07T12:06:07;1.63;;;1.20;;
15104;SDS011;7653;48.994;9.212;2023-05-07T12:08:35;1.60;;;1.35;;
15104;SDS011;7653;48.994;9.212;2023-05-07T12:11:03;3.13;;;1.38;;
15104;SDS011;7653;48.994;9.212;2023-05-07T12:13:31;2.20;;;1.30;;
15104;SDS011;7653;48.994;9.212;2023-05-07T12:15:57;2.17;;;1.35;;
15104;SDS011;7653;48.994;9.212;2023-05-07T12:18:23;2.10;;;1.20;;
15104;SDS011;7653;48.994;9.212;2023-05-07T12:20:50;1.63;;;1.30;;
15104;SDS011;7653;48.994;9.212;2023-05-07T12:23:15;1.77;;;1.40;;
15104;SDS011;7653;48.994;9.212;2023-05-07T12:25:42;2.28;;;1.45;;
15104;SDS011;7653;48.994;9.212;2023-05-07T12:28:12;1.52;;;1.38;;
15104;SDS011;7653;48.994;9.212;2023-05-07T12:30:40;1.83;;;1.30;;
15104;SDS011;7653;48.994;9.212;2023-05-07T12:33:07;1.52;;;1.42;;
15104;SDS011;7653;48.994;9.212;2023-05-07T12:35:40;1.83;;;1.27;;
15104;SDS011;7653;48.994;9.212;2023-05-07T12:38:10;2.83;;;1.23;;
15104;SDS011;7653;48.994;9.212;2023-05-07T12:43:02;3.05;;;1.30;;
15104;SDS011;7653;48.994;9.212;2023-05-07T12:45:28;2.15;;;1.40;;
15104;SDS011;7653;48.994;9.212;2023-05-07T12:47:54;3.42;;;1.38;;
15104;SDS011;7653;48.994;9.212;2023-05-07T12:50:19;1.92;;;1.30;;
15104;SDS011;7653;48.994;9.212;2023-05-07T12:52:48;2.55;;;1.40;;
15104;SDS011;7653;48.994;9.212;2023-05-07T12:55:14;1.95;;;1.30;;
15104;SDS011;7653;48.994;9.212;2023-05-07T12:57:45;1.67;;;1.30;;
15104;SDS011;7653;48.994;9.212;2023-05-07T13:00:13;1.63;;;1.50;;
15104;SDS011;7653;48.994;9.212;2023-05-07T13:02:40;1.83;;;1.50;;
15104;SDS011;7653;48.994;9.212;2023-05-07T13:05:09;2.42;;;1.20;;
15104;SDS011;7653;48.994;9.212;2023-05-07T13:07:35;1.65;;;1.25;;
15104;SDS011;7653;48.994;9.212;2023-05-07T13:10:02;3.10;;;1.50;;
15104;SDS011;7653;48.994;9.212;2023-05-07T13:12:28;1.48;;;1.38;;
15104;SDS011;7653;48.994;9.212;2023-05-07T13:14:53;2.15;;;1.35;;
15104;SDS011;7653;48.994;9.212;2023-05-07T13:17:19;3.22;;;1.58;;
15104;SDS011;7653;48.994;9.212;2023-05-07T13:19:44;2.65;;;1.50;;
15104;SDS011;7653;48.994;9.212;2023-05-07T13:22:10;1.73;;;1.50;;
15104;SDS011;7653;48.994;9.212;2023-05-07T13:24:36;2.03;;;1.70;;
15104;SDS011;7653;48.994;9.212;2023-05-07T13:27:02;2.10;;;1.30;;
15104;SDS011;7653;48.994;9.212;2023-05-07T13:29:28;2.15;;;1.33;;
15104;SDS011;7653;48.994;9.212;2023-05-07T13:31:58;3.35;;;1.40;;
15104;SDS011;7653;48.994;9.212;2023-05-07T13:34:23;1.95;;;1.30;;
15104;SDS011;7653;48.994;9.212;2023-05-07T13:36:49;2.07;;;1.37;;
15104;SDS011;7653;48.994;9.212;2023-05-07T13:39:15;2.97;;;1.67;;
15104;SDS011;7653;48.994;9.212;2023-05-07T13:41:41;1.90;;;1.70;;
15104;SDS011;7653;48.994;9.212;2023-05-07T13:44:07;2.10;;;1.90;;
15104;SDS011;7653;48.994;9.212;2023-05-07T13:46:32;3.03;;;1.90;;
15104;SDS011;7653;48.994;9.212;2023-05-07T13:48:58;4.03;;;1.80;;
15104;SDS011;7653;48.994;9.212;2023-05-07T13:51:24;2.30;;;1.30;;
15104;SDS011;7653;48.994;9.212;2023-05-07T13:53:50;2.40;;;1.30;;
15104;SDS011;7653;48.994;9.212;2023-05-07T13:56:17;1.83;;;1.23;;
15104;SDS011;7653;48.994;9.212;2023-05-07T13:58:43;1.30;;;1.10;;
15104;SDS011;7653;48.994;9.212;2023-05-07T14:01:08;2.03;;;1.20;;
15104;SDS011;7653;48.994;9.212;2023-05-07T14:03:34;1.73;;;0.93;;
15104;SDS011;7653;48.994;9.212;2023-05-07T14:06:02;1.90;;;1.13;;
15104;SDS011;7653;48.994;9.212;2023-05-07T14:08:28;2.53;;;1.00;;
15104;SDS011;7653;48.994;9.212;2023-05-07T14:10:54;1.93;;;1.17;;
15104;SDS011;7653;48.994;9.212;2023-05-07T14:13:20;0.97;;;0.93;;
15104;SDS011;7653;48.994;9.212;2023-05-07T14:15:46;1.63;;;1.00;;
15104;SDS011;7653;48.994;9.212;2023-05-07T14:18:13;1.90;;;0.87;;
15104;SDS011;7653;48.994;9.212;2023-05-07T14:20:39;1.30;;;1.00;;
15104;SDS011;7653;48.994;9.212;2023-05-07T14:23:04;1.60;;;1.00;;
15104;SDS011;7653;48.994;9.212;2023-05-07T14:25:30;0.60;;;0.50;;
15104;SDS011;7653;48.994;9.212;2023-05-07T14:27:56;1.83;;;1.00;;
15104;SDS011;7653;48.994;9.212;2023-05-07T14:30:21;1.87;;;0.93;;
15104;SDS011;7653;48.994;9.212;2023-05-07T14:32:49;4.47;;;1.00;;
15104;SDS011;7653;48.994;9.212;2023-05-07T14:35:15;2.70;;;1.07;;
15104;SDS011;7653;48.994;9.212;2023-05-07T14:37:41;2.33;;;1.50;;
15104;SDS011;7653;48.994;9.212;2023-05-07T14:40:06;4.03;;;1.70;;
15104;SDS011;7653;48.994;9.212;2023-05-07T14:42:33;2.73;;;1.67;;
15104;SDS011;7653;48.994;9.212;2023-05-07T14:44:58;3.17;;;1.67;;
15104;SDS011;7653;48.994;9.212;2023-05-07T14:47:24;2.67;;;1.40;;
15104;SDS011;7653;48.994;9.212;2023-05-07T14:49:50;2.00;;;1.80;;
15104;SDS011;7653;48.994;9.212;2023-05-07T14:52:16;2.07;;;1.50;;
15104;SDS011;7653;48.994;9.212;2023-05-07T14:54:41;2.87;;;1.50;;
15104;SDS011;7653;48.994;9.212;2023-05-07T14:57:08;5.60;;;1.77;;
15104;SDS011;7653;48.994;9.212;2023-05-07T14:59:34;2.13;;;1.50;;
15104;SDS011;7653;48.994;9.212;2023-05-07T15:02:01;2.60;;;1.90;;
15104;SDS011;7653;48.994;9.212;2023-05-07T15:04:26;2.53;;;1.87;;
15104;SDS011;7653;48.994;9.212;2023-05-07T15:06:52;3.27;;;1.90;;
15104;SDS011;7653;48.994;9.212;2023-05-07T15:09:21;2.13;;;1.50;;
15104;SDS011;7653;48.994;9.212;2023-05-07T15:11:46;1.90;;;1.70;;